sensor_id;sensor_type;location;lat;lon;timestamp;pressure;altitude;pressure_sealevel;temperature;humidity
61292;BME280;47165;42.664;23.368;2023-07-13T00:00:29;95251.09;;;27.84;40.95
61292;BME280;47165;42.664;23.368;2023-07-13T00:02:55;95248.34;;;27.78;40.40
61292;BME280;47165;42.664;23.368;2023-07-13T00:05:22;95253.53;;;27.64;40.36
61292;BME280;47165;42.664;23.368;2023-07-13T00:07:50;95249.84;;;27.51;41.75
61292;BME280;47165;42.664;23.368;2023-07-13T00:10:16;95242.16;;;27.47;41.71
61292;BME280;47165;42.664;23.368;2023-07-13T00:12:43;95250.50;;;27.53;41.72
61292;BME280;47165;42.664;23.368;2023-07-13T00:15:16;95252.34;;;27.37;42.55
61292;BME280;47165;42.664;23.368;2023-07-13T00:17:46;95246.91;;;26.93;43.83
61292;BME280;47165;42.664;23.368;2023-07-13T00:20:12;95239.25;;;27.04;43.11
61292;BME280;47165;42.664;23.368;2023-07-13T00:22:38;95248.16;;;27.20;42.40
61292;BME280;47165;42.664;23.368;2023-07-13T00:25:04;95248.00;;;27.36;41.74
61292;BME280;47165;42.664;23.368;2023-07-13T00:27:31;95240.16;;;27.35;41.63
61292;BME280;47165;42.664;23.368;2023-07-13T00:30:00;95236.75;;;27.26;41.62
61292;BME280;47165;42.664;23.368;2023-07-13T00:32:25;95236.09;;;26.86;41.65
61292;BME280;47165;42.664;23.368;2023-07-13T00:34:51;95234.81;;;26.82;42.04
61292;BME280;47165;42.664;23.368;2023-07-13T00:37:17;95236.00;;;26.79;41.36
61292;BME280;47165;42.664;23.368;2023-07-13T00:39:46;95226.47;;;26.54;41.18
61292;BME280;47165;42.664;23.368;2023-07-13T00:42:11;95233.09;;;26.43;42.66
61292;BME280;47165;42.664;23.368;2023-07-13T00:44:37;95238.28;;;26.44;43.43
61292;BME280;47165;42.664;23.368;2023-07-13T00:47:05;95231.31;;;26.35;42.83
61292;BME280;47165;42.664;23.368;2023-07-13T00:49:32;95235.78;;;26.43;42.41
61292;BME280;47165;42.664;23.368;2023-07-13T00:52:06;95241.06;;;26.51;41.45
61292;BME280;47165;42.664;23.368;2023-07-13T00:54:37;95231.72;;;26.47;42.37
61292;BME280;47165;42.664;23.368;2023-07-13T00:57:07;95235.44;;;26.46;42.05
61292;BME280;47165;42.664;23.368;2023-07-13T00:59:34;95228.50;;;26.52;43.47
61292;BME280;47165;42.664;23.368;2023-07-13T01:02:02;95232.28;;;26.42;44.68
61292;BME280;47165;42.664;23.368;2023-07-13T01:04:28;95217.75;;;26.37;45.07
61292;BME280;47165;42.664;23.368;2023-07-13T01:06:54;95228.72;;;26.50;43.79
61292;BME280;47165;42.664;23.368;2023-07-13T01:09:21;95226.03;;;26.50;43.07
61292;BME280;47165;42.664;23.368;2023-07-13T01:11:47;95220.91;;;26.40;44.55
61292;BME280;47165;42.664;23.368;2023-07-13T01:14:13;95222.63;;;26.33;44.63
61292;BME280;47165;42.664;23.368;2023-07-13T01:16:41;95233.59;;;26.23;44.18
61292;BME280;47165;42.664;23.368;2023-07-13T01:22:01;95225.19;;;26.26;45.28
61292;BME280;47165;42.664;23.368;2023-07-13T01:24:27;95221.09;;;26.39;43.27
61292;BME280;47165;42.664;23.368;2023-07-13T01:26:53;95215.97;;;26.06;43.50
61292;BME280;47165;42.664;23.368;2023-07-13T01:29:18;95223.97;;;25.83;45.17
61292;BME280;47165;42.664;23.368;2023-07-13T01:31:44;95225.19;;;25.72;44.73
61292;BME280;47165;42.664;23.368;2023-07-13T01:34:10;95230.84;;;25.77;44.63
61292;BME280;47165;42.664;23.368;2023-07-13T01:36:36;95236.34;;;25.76;45.73
61292;BME280;47165;42.664;23.368;2023-07-13T01:39:02;95220.00;;;25.70;45.08
61292;BME280;47165;42.664;23.368;2023-07-13T01:41:28;95229.81;;;25.86;44.24
61292;BME280;47165;42.664;23.368;2023-07-13T01:43:54;95230.44;;;25.97;43.69
61292;BME280;47165;42.664;23.368;2023-07-13T01:46:20;95227.44;;;25.92;43.46
61292;BME280;47165;42.664;23.368;2023-07-13T01:48:45;95220.44;;;25.91;43.54
61292;BME280;47165;42.664;23.368;2023-07-13T01:51:13;95224.28;;;25.80;44.02
61292;BME280;47165;42.664;23.368;2023-07-13T01:53:39;95225.78;;;25.91;43.72
61292;BME280;47165;42.664;23.368;2023-07-13T01:56:05;95217.13;;;25.80;44.05
61292;BME280;47165;42.664;23.368;2023-07-13T01:58:30;95216.41;;;25.86;43.49
61292;BME280;47165;42.664;23.368;2023-07-13T02:00:56;95219.44;;;25.83;43.50
61292;BME280;47165;42.664;23.368;2023-07-13T02:03:21;95214.44;;;25.80;43.00
61292;BME280;47165;42.664;23.368;2023-07-13T02:05:47;95221.81;;;25.78;43.50
61292;BME280;47165;42.664;23.368;2023-07-13T02:08:13;95228.75;;;25.64;44.16
61292;BME280;47165;42.664;23.368;2023-07-13T02:10:41;95231.53;;;25.71;44.31
61292;BME280;47165;42.664;23.368;2023-07-13T02:13:07;95229.56;;;25.65;44.52
61292;BME280;47165;42.664;23.368;2023-07-13T02:15:33;95229.94;;;25.62;44.89
61292;BME280;47165;42.664;23.368;2023-07-13T02:17:59;95234.25;;;25.63;44.21
61292;BME280;47165;42.664;23.368;2023-07-13T02:20:25;95229.28;;;25.60;44.38
61292;BME280;47165;42.664;23.368;2023-07-13T02:22:52;95234.38;;;25.69;43.83
61292;BME280;47165;42.664;23.368;2023-07-13T02:25:18;95234.16;;;25.79;43.21
61292;BME280;47165;42.664;23.368;2023-07-13T02:27:43;95233.56;;;25.69;43.51
61292;BME280;47165;42.664;23.368;2023-07-13T02:30:10;95238.88;;;25.77;44.25
61292;BME280;47165;42.664;23.368;2023-07-13T02:32:36;95243.13;;;25.55;44.10
61292;BME280;47165;42.664;23.368;2023-07-13T02:35:02;95235.84;;;25.41;44.83
61292;BME280;47165;42.664;23.368;2023-07-13T02:37:28;95250.41;;;25.38;45.32
61292;BME280;47165;42.664;23.368;2023-07-13T02:39:55;95244.28;;;25.21;44.97
61292;BME280;47165;42.664;23.368;2023-07-13T02:42:21;95237.22;;;25.20;46.05
61292;BME280;47165;42.664;23.368;2023-07-13T02:44:50;95230.63;;;24.92;46.45
61292;BME280;47165;42.664;23.368;2023-07-13T02:47:16;95249.16;;;24.93;47.46
61292;BME280;47165;42.664;23.368;2023-07-13T02:49:41;95245.03;;;24.74;47.49
61292;BME280;47165;42.664;23.368;2023-07-13T02:52:07;95244.19;;;24.82;47.27
61292;BME280;47165;42.664;23.368;2023-07-13T02:54:33;95249.50;;;24.90;47.73
61292;BME280;47165;42.664;23.368;2023-07-13T02:56:59;95240.34;;;24.84;47.33
61292;BME280;47165;42.664;23.368;2023-07-13T02:59:24;95239.75;;;25.14;46.95
61292;BME280;47165;42.664;23.368;2023-07-13T03:01:50;95249.94;;;25.10;46.70
61292;BME280;47165;42.664;23.368;2023-07-13T03:04:16;95239.63;;;25.07;47.22
61292;BME280;47165;42.664;23.368;2023-07-13T03:06:45;95246.97;;;25.05;48.18
61292;BME280;47165;42.664;23.368;2023-07-13T03:09:11;95242.81;;;25.02;46.67
61292;BME280;47165;42.664;23.368;2023-07-13T03:11:38;95247.50;;;25.00;47.53
61292;BME280;47165;42.664;23.368;2023-07-13T03:14:04;95252.47;;;25.03;47.37
61292;BME280;47165;42.664;23.368;2023-07-13T03:16:30;95253.97;;;25.06;46.99
61292;BME280;47165;42.664;23.368;2023-07-13T03:18:55;95248.63;;;24.98;47.47
61292;BME280;47165;42.664;23.368;2023-07-13T03:21:21;95256.84;;;24.96;47.43
61292;BME280;47165;42.664;23.368;2023-07-13T03:23:47;95259.66;;;25.11;47.04
61292;BME280;47165;42.664;23.368;2023-07-13T03:26:15;95247.78;;;25.22;46.89
61292;BME280;47165;42.664;23.368;2023-07-13T03:28:42;95245.94;;;25.14;47.10
61292;BME280;47165;42.664;23.368;2023-07-13T03:31:16;95260.44;;;25.20;48.38
61292;BME280;47165;42.664;23.368;2023-07-13T03:33:42;95262.50;;;25.01;48.92
61292;BME280;47165;42.664;23.368;2023-07-13T03:36:19;95270.50;;;25.01;48.26
61292;BME280;47165;42.664;23.368;2023-07-13T03:38:50;95269.84;;;24.99;48.96
61292;BME280;47165;42.664;23.368;2023-07-13T03:41:16;95275.03;;;24.93;48.72
61292;BME280;47165;42.664;23.368;2023-07-13T03:43:42;95264.38;;;24.93;49.69
61292;BME280;47165;42.664;23.368;2023-07-13T03:46:08;95268.88;;;24.92;49.30
61292;BME280;47165;42.664;23.368;2023-07-13T03:48:34;95255.97;;;25.04;47.84
61292;BME280;47165;42.664;23.368;2023-07-13T03:51:00;95257.63;;;25.13;47.95
61292;BME280;47165;42.664;23.368;2023-07-13T03:53:26;95253.28;;;25.12;47.31
61292;BME280;47165;42.664;23.368;2023-07-13T03:55:52;95260.16;;;25.06;47.61
61292;BME280;47165;42.664;23.368;2023-07-13T03:58:30;95261.31;;;25.12;47.99
61292;BME280;47165;42.664;23.368;2023-07-13T04:00:56;95262.50;;;25.01;48.30
61292;BME280;47165;42.664;23.368;2023-07-13T04:03:23;95268.19;;;24.98;49.57
61292;BME280;47165;42.664;23.368;2023-07-13T04:05:48;95264.88;;;24.96;48.87
61292;BME280;47165;42.664;23.368;2023-07-13T04:08:14;95267.53;;;25.04;48.73
61292;BME280;47165;42.664;23.368;2023-07-13T04:10:40;95253.66;;;25.01;48.42
61292;BME280;47165;42.664;23.368;2023-07-13T04:13:05;95255.50;;;25.08;48.94
61292;BME280;47165;42.664;23.368;2023-07-13T04:15:32;95255.13;;;25.12;48.46
61292;BME280;47165;42.664;23.368;2023-07-13T04:17:58;95260.84;;;25.08;49.24
61292;BME280;47165;42.664;23.368;2023-07-13T04:20:27;95253.50;;;25.02;48.78
61292;BME280;47165;42.664;23.368;2023-07-13T04:22:53;95270.84;;;25.15;49.08
61292;BME280;47165;42.664;23.368;2023-07-13T04:25:20;95273.53;;;25.23;49.41
61292;BME280;47165;42.664;23.368;2023-07-13T04:27:46;95281.16;;;25.18;49.46
61292;BME280;47165;42.664;23.368;2023-07-13T04:30:12;95281.69;;;25.29;49.29
61292;BME280;47165;42.664;23.368;2023-07-13T04:32:38;95274.50;;;25.30;49.13
61292;BME280;47165;42.664;23.368;2023-07-13T04:35:04;95271.81;;;25.30;48.92
61292;BME280;47165;42.664;23.368;2023-07-13T04:37:30;95275.97;;;25.33;49.41
61292;BME280;47165;42.664;23.368;2023-07-13T04:39:55;95277.16;;;25.30;50.01
61292;BME280;47165;42.664;23.368;2023-07-13T04:42:21;95277.53;;;25.27;50.37
61292;BME280;47165;42.664;23.368;2023-07-13T04:44:51;95278.47;;;25.42;50.16
61292;BME280;47165;42.664;23.368;2023-07-13T04:47:18;95280.59;;;25.47;48.80
61292;BME280;47165;42.664;23.368;2023-07-13T04:49:44;95283.53;;;25.29;49.44
61292;BME280;47165;42.664;23.368;2023-07-13T04:52:11;95284.19;;;25.31;49.62
61292;BME280;47165;42.664;23.368;2023-07-13T04:54:37;95288.81;;;25.45;49.63
61292;BME280;47165;42.664;23.368;2023-07-13T04:57:03;95293.28;;;25.53;49.04
61292;BME280;47165;42.664;23.368;2023-07-13T04:59:32;95299.13;;;25.57;48.86
61292;BME280;47165;42.664;23.368;2023-07-13T05:01:58;95299.97;;;25.57;49.19
61292;BME280;47165;42.664;23.368;2023-07-13T05:04:24;95294.44;;;25.59;49.41
61292;BME280;47165;42.664;23.368;2023-07-13T05:06:49;95301.56;;;25.75;48.73
61292;BME280;47165;42.664;23.368;2023-07-13T05:09:15;95292.41;;;25.69;48.70
61292;BME280;47165;42.664;23.368;2023-07-13T05:11:41;95300.09;;;25.72;48.03
61292;BME280;47165;42.664;23.368;2023-07-13T05:14:06;95304.41;;;25.73;48.19
61292;BME280;47165;42.664;23.368;2023-07-13T05:16:32;95299.91;;;25.74;48.10
61292;BME280;47165;42.664;23.368;2023-07-13T05:18:58;95317.59;;;25.91;47.70
61292;BME280;47165;42.664;23.368;2023-07-13T05:21:24;95308.03;;;25.88;47.73
61292;BME280;47165;42.664;23.368;2023-07-13T05:23:49;95318.00;;;26.11;47.78
61292;BME280;47165;42.664;23.368;2023-07-13T05:26:15;95312.38;;;25.98;48.51
61292;BME280;47165;42.664;23.368;2023-07-13T05:28:41;95303.16;;;26.00;48.35
61292;BME280;47165;42.664;23.368;2023-07-13T05:31:08;95304.00;;;26.01;48.66
61292;BME280;47165;42.664;23.368;2023-07-13T05:33:34;95306.97;;;26.06;48.70
61292;BME280;47165;42.664;23.368;2023-07-13T05:36:00;95310.00;;;26.03;47.46
61292;BME280;47165;42.664;23.368;2023-07-13T05:38:26;95301.13;;;26.02;47.99
61292;BME280;47165;42.664;23.368;2023-07-13T05:40:53;95308.81;;;26.05;48.87
61292;BME280;47165;42.664;23.368;2023-07-13T05:43:19;95311.50;;;26.05;46.03
61292;BME280;47165;42.664;23.368;2023-07-13T05:45:45;95311.94;;;26.17;47.75
61292;BME280;47165;42.664;23.368;2023-07-13T05:48:11;95309.16;;;26.34;47.49
61292;BME280;47165;42.664;23.368;2023-07-13T05:50:36;95307.97;;;26.36;45.62
61292;BME280;47165;42.664;23.368;2023-07-13T05:53:02;95309.81;;;26.36;44.57
61292;BME280;47165;42.664;23.368;2023-07-13T05:55:28;95317.91;;;26.27;44.64
61292;BME280;47165;42.664;23.368;2023-07-13T05:57:54;95314.09;;;26.45;46.46
61292;BME280;47165;42.664;23.368;2023-07-13T06:00:20;95309.72;;;26.52;46.29
61292;BME280;47165;42.664;23.368;2023-07-13T06:02:45;95307.66;;;26.62;46.57
61292;BME280;47165;42.664;23.368;2023-07-13T06:05:11;95308.91;;;26.75;46.94
61292;BME280;47165;42.664;23.368;2023-07-13T06:07:42;95297.81;;;26.78;46.56
61292;BME280;47165;42.664;23.368;2023-07-13T06:10:08;95276.75;;;26.75;46.14
61292;BME280;47165;42.664;23.368;2023-07-13T06:12:34;95287.50;;;26.89;45.92
61292;BME280;47165;42.664;23.368;2023-07-13T06:15:00;95293.50;;;26.92;45.85
61292;BME280;47165;42.664;23.368;2023-07-13T06:17:29;95309.13;;;27.03;46.62
61292;BME280;47165;42.664;23.368;2023-07-13T06:19:58;95308.22;;;27.10;47.39
61292;BME280;47165;42.664;23.368;2023-07-13T06:22:23;95306.50;;;27.18;47.57
61292;BME280;47165;42.664;23.368;2023-07-13T06:24:52;95307.50;;;27.17;47.40
61292;BME280;47165;42.664;23.368;2023-07-13T06:27:17;95313.09;;;27.30;47.48
61292;BME280;47165;42.664;23.368;2023-07-13T06:29:43;95306.16;;;27.36;46.97
61292;BME280;47165;42.664;23.368;2023-07-13T06:32:10;95305.91;;;27.45;46.17
61292;BME280;47165;42.664;23.368;2023-07-13T06:34:36;95305.97;;;27.52;46.16
61292;BME280;47165;42.664;23.368;2023-07-13T06:37:02;95308.31;;;27.40;44.25
61292;BME280;47165;42.664;23.368;2023-07-13T06:39:28;95301.47;;;27.53;45.77
61292;BME280;47165;42.664;23.368;2023-07-13T06:41:53;95302.31;;;26.54;46.58
61292;BME280;47165;42.664;23.368;2023-07-13T06:44:19;95303.75;;;26.42;47.03
61292;BME280;47165;42.664;23.368;2023-07-13T06:46:44;95299.88;;;27.28;45.00
61292;BME280;47165;42.664;23.368;2023-07-13T06:49:10;95289.19;;;28.09;43.11
61292;BME280;47165;42.664;23.368;2023-07-13T06:51:36;95293.50;;;28.25;43.70
61292;BME280;47165;42.664;23.368;2023-07-13T06:54:02;95296.03;;;28.92;42.66
61292;BME280;47165;42.664;23.368;2023-07-13T06:56:28;95283.69;;;28.97;43.38
61292;BME280;47165;42.664;23.368;2023-07-13T06:58:53;95300.44;;;28.99;42.27
61292;BME280;47165;42.664;23.368;2023-07-13T07:01:19;95293.97;;;28.94;42.25
61292;BME280;47165;42.664;23.368;2023-07-13T07:03:45;95288.81;;;28.71;41.72
61292;BME280;47165;42.664;23.368;2023-07-13T07:06:20;95299.72;;;28.84;42.59
61292;BME280;47165;42.664;23.368;2023-07-13T07:08:46;95302.19;;;28.85;42.04
61292;BME280;47165;42.664;23.368;2023-07-13T07:11:17;95303.91;;;28.93;42.68
61292;BME280;47165;42.664;23.368;2023-07-13T07:13:43;95291.97;;;28.74;42.91
61292;BME280;47165;42.664;23.368;2023-07-13T07:16:09;95293.56;;;27.81;45.88
61292;BME280;47165;42.664;23.368;2023-07-13T07:18:35;95287.88;;;28.78;43.70
61292;BME280;47165;42.664;23.368;2023-07-13T07:21:01;95288.97;;;29.40;42.21
61292;BME280;47165;42.664;23.368;2023-07-13T07:23:27;95295.94;;;29.98;40.49
61292;BME280;47165;42.664;23.368;2023-07-13T07:25:52;95287.75;;;30.26;39.10
61292;BME280;47165;42.664;23.368;2023-07-13T07:28:18;95283.97;;;30.14;39.59
61292;BME280;47165;42.664;23.368;2023-07-13T07:30:47;95298.28;;;30.14;39.94
61292;BME280;47165;42.664;23.368;2023-07-13T07:33:14;95288.53;;;30.13;40.32
61292;BME280;47165;42.664;23.368;2023-07-13T07:35:39;95291.19;;;30.06;39.58
61292;BME280;47165;42.664;23.368;2023-07-13T07:38:05;95276.53;;;30.09;39.40
61292;BME280;47165;42.664;23.368;2023-07-13T07:40:31;95281.47;;;30.12;40.17
61292;BME280;47165;42.664;23.368;2023-07-13T07:42:57;95280.66;;;30.05;41.21
61292;BME280;47165;42.664;23.368;2023-07-13T07:45:23;95277.25;;;29.83;40.72
61292;BME280;47165;42.664;23.368;2023-07-13T07:47:49;95275.47;;;29.68;41.76
61292;BME280;47165;42.664;23.368;2023-07-13T07:50:15;95268.56;;;29.53;42.12
61292;BME280;47165;42.664;23.368;2023-07-13T07:52:40;95274.03;;;29.31;43.50
61292;BME280;47165;42.664;23.368;2023-07-13T07:55:07;95277.03;;;29.15;40.76
61292;BME280;47165;42.664;23.368;2023-07-13T07:57:33;95266.75;;;29.03;41.79
61292;BME280;47165;42.664;23.368;2023-07-13T07:59:59;95264.47;;;29.00;41.80
61292;BME280;47165;42.664;23.368;2023-07-13T08:02:25;95265.41;;;29.14;41.63
61292;BME280;47165;42.664;23.368;2023-07-13T08:04:51;95259.84;;;29.16;41.07
61292;BME280;47165;42.664;23.368;2023-07-13T08:07:18;95254.66;;;29.14;41.68
61292;BME280;47165;42.664;23.368;2023-07-13T08:09:43;95248.28;;;29.15;40.25
61292;BME280;47165;42.664;23.368;2023-07-13T08:12:09;95246.09;;;29.32;41.31
61292;BME280;47165;42.664;23.368;2023-07-13T08:14:35;95245.09;;;29.40;41.67
61292;BME280;47165;42.664;23.368;2023-07-13T08:17:01;95244.34;;;29.53;40.85
61292;BME280;47165;42.664;23.368;2023-07-13T08:19:26;95241.59;;;29.74;41.49
61292;BME280;47165;42.664;23.368;2023-07-13T08:21:52;95235.84;;;29.91;41.25
61292;BME280;47165;42.664;23.368;2023-07-13T08:24:17;95233.81;;;30.06;42.52
61292;BME280;47165;42.664;23.368;2023-07-13T08:26:44;95233.81;;;30.13;40.85
61292;BME280;47165;42.664;23.368;2023-07-13T08:29:11;95232.44;;;30.23;40.60
61292;BME280;47165;42.664;23.368;2023-07-13T08:31:37;95238.09;;;30.82;39.59
61292;BME280;47165;42.664;23.368;2023-07-13T08:34:03;95226.50;;;31.01;38.13
61292;BME280;47165;42.664;23.368;2023-07-13T08:36:29;95231.44;;;31.31;36.54
61292;BME280;47165;42.664;23.368;2023-07-13T08:38:55;95221.78;;;31.75;36.35
61292;BME280;47165;42.664;23.368;2023-07-13T08:41:21;95221.97;;;31.80;36.61
61292;BME280;47165;42.664;23.368;2023-07-13T08:43:58;95223.03;;;31.79;36.64
61292;BME280;47165;42.664;23.368;2023-07-13T08:46:36;95213.00;;;31.86;36.62
61292;BME280;47165;42.664;23.368;2023-07-13T08:49:06;95216.28;;;31.95;36.07
61292;BME280;47165;42.664;23.368;2023-07-13T08:56:44;95218.00;;;31.90;37.24
61292;BME280;47165;42.664;23.368;2023-07-13T08:59:16;95225.00;;;32.04;37.55
61292;BME280;47165;42.664;23.368;2023-07-13T09:04:25;95238.47;;;31.39;39.20
61292;BME280;47165;42.664;23.368;2023-07-13T09:07:17;95235.84;;;31.05;38.06
61292;BME280;47165;42.664;23.368;2023-07-13T09:10:15;95233.75;;;31.99;36.17
61292;BME280;47165;42.664;23.368;2023-07-13T09:13:07;95249.13;;;32.76;35.45
61292;BME280;47165;42.664;23.368;2023-07-13T09:15:45;95245.22;;;33.40;34.97
61292;BME280;47165;42.664;23.368;2023-07-13T09:18:28;95243.91;;;33.86;33.97
61292;BME280;47165;42.664;23.368;2023-07-13T09:21:23;95247.97;;;33.77;32.93
61292;BME280;47165;42.664;23.368;2023-07-13T09:23:59;95239.53;;;33.67;32.02
61292;BME280;47165;42.664;23.368;2023-07-13T09:26:30;95246.59;;;33.50;32.96
61292;BME280;47165;42.664;23.368;2023-07-13T09:29:12;95239.69;;;33.54;33.16
61292;BME280;47165;42.664;23.368;2023-07-13T09:31:44;95249.44;;;33.36;32.83
61292;BME280;47165;42.664;23.368;2023-07-13T09:34:13;95247.38;;;33.13;34.04
61292;BME280;47165;42.664;23.368;2023-07-13T09:36:38;95236.78;;;33.05;34.92
61292;BME280;47165;42.664;23.368;2023-07-13T09:44:31;95241.41;;;32.98;35.55
61292;BME280;47165;42.664;23.368;2023-07-13T09:46:59;95241.66;;;33.65;34.09
61292;BME280;47165;42.664;23.368;2023-07-13T09:49:27;95234.13;;;33.85;33.27
61292;BME280;47165;42.664;23.368;2023-07-13T09:52:04;95226.88;;;33.98;32.68
61292;BME280;47165;42.664;23.368;2023-07-13T09:54:34;95217.44;;;33.89;32.75
61292;BME280;47165;42.664;23.368;2023-07-13T09:57:02;95210.31;;;34.06;33.27
61292;BME280;47165;42.664;23.368;2023-07-13T09:59:34;95212.50;;;34.16;32.07
61292;BME280;47165;42.664;23.368;2023-07-13T10:02:00;95200.97;;;34.20;31.30
61292;BME280;47165;42.664;23.368;2023-07-13T10:04:30;95199.38;;;34.43;30.93
61292;BME280;47165;42.664;23.368;2023-07-13T10:07:11;95197.50;;;34.43;30.83
61292;BME280;47165;42.664;23.368;2023-07-13T10:09:41;95199.97;;;34.45;31.94
61292;BME280;47165;42.664;23.368;2023-07-13T10:12:14;95191.84;;;33.04;35.79
61292;BME280;47165;42.664;23.368;2023-07-13T10:14:41;95191.28;;;33.20;33.48
61292;BME280;47165;42.664;23.368;2023-07-13T10:17:10;95185.78;;;34.19;32.14
61292;BME280;47165;42.664;23.368;2023-07-13T10:19:38;95182.84;;;34.98;29.91
61292;BME280;47165;42.664;23.368;2023-07-13T10:24:43;95185.72;;;35.15;32.10
61292;BME280;47165;42.664;23.368;2023-07-13T10:27:16;95185.94;;;35.14;31.14
61292;BME280;47165;42.664;23.368;2023-07-13T10:29:47;95180.28;;;35.15;31.38
61292;BME280;47165;42.664;23.368;2023-07-13T10:32:16;95170.69;;;35.13;30.42
61292;BME280;47165;42.664;23.368;2023-07-13T10:34:46;95176.38;;;35.23;30.87
61292;BME280;47165;42.664;23.368;2023-07-13T10:37:22;95161.13;;;35.34;29.51
61292;BME280;47165;42.664;23.368;2023-07-13T10:39:53;95161.50;;;35.37;31.11
61292;BME280;47165;42.664;23.368;2023-07-13T10:42:40;95161.78;;;35.64;29.10
61292;BME280;47165;42.664;23.368;2023-07-13T10:45:19;95158.78;;;35.90;27.56
61292;BME280;47165;42.664;23.368;2023-07-13T10:47:46;95151.41;;;36.02;27.22
61292;BME280;47165;42.664;23.368;2023-07-13T10:50:25;95146.03;;;36.19;23.67
61292;BME280;47165;42.664;23.368;2023-07-13T10:52:55;95137.16;;;36.40;23.23
61292;BME280;47165;42.664;23.368;2023-07-13T10:58:18;95135.16;;;36.36;21.73
61292;BME280;47165;42.664;23.368;2023-07-13T11:01:08;95133.66;;;36.28;21.49
61292;BME280;47165;42.664;23.368;2023-07-13T11:03:50;95118.94;;;36.41;20.47
61292;BME280;47165;42.664;23.368;2023-07-13T11:09:00;95122.69;;;36.69;19.90
61292;BME280;47165;42.664;23.368;2023-07-13T11:11:34;95114.25;;;36.87;20.64
61292;BME280;47165;42.664;23.368;2023-07-13T11:14:25;95101.94;;;37.01;21.09
61292;BME280;47165;42.664;23.368;2023-07-13T11:16:50;95099.50;;;37.22;20.28
61292;BME280;47165;42.664;23.368;2023-07-13T11:27:42;95095.53;;;36.57;20.06
61292;BME280;47165;42.664;23.368;2023-07-13T11:32:50;95092.56;;;36.58;21.02
61292;BME280;47165;42.664;23.368;2023-07-13T11:35:22;95091.69;;;36.70;21.22
61292;BME280;47165;42.664;23.368;2023-07-13T11:37:51;95093.31;;;37.49;20.64
61292;BME280;47165;42.664;23.368;2023-07-13T11:40:18;95077.84;;;37.76;19.76
61292;BME280;47165;42.664;23.368;2023-07-13T11:42:44;95085.00;;;38.10;19.17
61292;BME280;47165;42.664;23.368;2023-07-13T11:45:21;95082.06;;;38.16;19.91
61292;BME280;47165;42.664;23.368;2023-07-13T11:47:49;95075.38;;;37.75;19.83
61292;BME280;47165;42.664;23.368;2023-07-13T11:50:22;95074.41;;;38.13;19.13
61292;BME280;47165;42.664;23.368;2023-07-13T11:52:49;95078.66;;;38.31;19.81
61292;BME280;47165;42.664;23.368;2023-07-13T11:55:18;95071.41;;;38.15;20.10
61292;BME280;47165;42.664;23.368;2023-07-13T11:57:49;95077.66;;;38.10;20.04
61292;BME280;47165;42.664;23.368;2023-07-13T12:00:23;95074.81;;;38.00;20.47
61292;BME280;47165;42.664;23.368;2023-07-13T12:02:51;95073.66;;;37.96;21.35
61292;BME280;47165;42.664;23.368;2023-07-13T12:05:19;95064.25;;;37.81;20.07
61292;BME280;47165;42.664;23.368;2023-07-13T12:07:45;95053.47;;;37.92;20.72
61292;BME280;47165;42.664;23.368;2023-07-13T12:10:22;95056.38;;;38.07;20.93
61292;BME280;47165;42.664;23.368;2023-07-13T12:12:53;95048.47;;;37.83;19.69
61292;BME280;47165;42.664;23.368;2023-07-13T12:15:20;95056.03;;;37.76;20.49
61292;BME280;47165;42.664;23.368;2023-07-13T12:17:48;95056.91;;;37.82;19.88
61292;BME280;47165;42.664;23.368;2023-07-13T12:20:25;95046.28;;;38.08;19.23
61292;BME280;47165;42.664;23.368;2023-07-13T12:22:51;95035.47;;;38.18;19.71
61292;BME280;47165;42.664;23.368;2023-07-13T12:25:18;95031.84;;;38.44;21.45
61292;BME280;47165;42.664;23.368;2023-07-13T12:27:51;95020.88;;;38.77;20.18
61292;BME280;47165;42.664;23.368;2023-07-13T12:30:26;95015.25;;;38.94;19.69
61292;BME280;47165;42.664;23.368;2023-07-13T12:33:10;95015.13;;;39.31;19.78
61292;BME280;47165;42.664;23.368;2023-07-13T12:35:47;95022.66;;;39.77;19.69
61292;BME280;47165;42.664;23.368;2023-07-13T12:38:16;95015.28;;;39.72;17.96
61292;BME280;47165;42.664;23.368;2023-07-13T12:40:42;95004.41;;;39.88;18.98
61292;BME280;47165;42.664;23.368;2023-07-13T12:43:12;95020.28;;;40.37;18.24
61292;BME280;47165;42.664;23.368;2023-07-13T12:45:55;95006.56;;;40.52;19.08
61292;BME280;47165;42.664;23.368;2023-07-13T12:48:21;94996.72;;;40.61;18.28
61292;BME280;47165;42.664;23.368;2023-07-13T12:50:48;95000.50;;;40.71;19.45
61292;BME280;47165;42.664;23.368;2023-07-13T12:53:19;95002.94;;;42.42;16.12
61292;BME280;47165;42.664;23.368;2023-07-13T12:55:57;94991.31;;;43.90;14.90
61292;BME280;47165;42.664;23.368;2023-07-13T12:58:38;94991.47;;;45.75;14.38
61292;BME280;47165;42.664;23.368;2023-07-13T13:01:08;94989.00;;;46.86;14.34
61292;BME280;47165;42.664;23.368;2023-07-13T13:03:38;94981.41;;;47.41;14.27
61292;BME280;47165;42.664;23.368;2023-07-13T13:08:46;94991.31;;;49.49;13.85
61292;BME280;47165;42.664;23.368;2023-07-13T13:11:11;94980.69;;;48.83;12.42
61292;BME280;47165;42.664;23.368;2023-07-13T13:13:37;94982.06;;;48.60;13.17
61292;BME280;47165;42.664;23.368;2023-07-13T13:18:35;94972.66;;;42.52;17.73
61292;BME280;47165;42.664;23.368;2023-07-13T13:21:01;94974.19;;;42.29;18.25
61292;BME280;47165;42.664;23.368;2023-07-13T13:23:28;94963.94;;;42.45;19.11
61292;BME280;47165;42.664;23.368;2023-07-13T13:25:53;94964.75;;;42.70;18.47
61292;BME280;47165;42.664;23.368;2023-07-13T13:28:20;94954.91;;;42.69;19.39
61292;BME280;47165;42.664;23.368;2023-07-13T13:30:47;94961.41;;;42.19;19.90
61292;BME280;47165;42.664;23.368;2023-07-13T13:33:16;94957.97;;;42.04;19.19
61292;BME280;47165;42.664;23.368;2023-07-13T13:35:43;94953.97;;;41.86;19.44